createdAt,value
2023-01-05T00:00:09.887Z,0.57
2023-01-05T00:02:39.528Z,0.56
2023-01-05T00:05:06.327Z,0.57
2023-01-05T00:07:33.034Z,0.57
2023-01-05T00:09:59.728Z,0.57
2023-01-05T00:12:45.040Z,0.58
2023-01-05T00:15:30.286Z,0.60
2023-01-05T00:18:15.662Z,0.58
2023-01-05T00:21:01.100Z,0.61
2023-01-05T00:23:27.873Z,0.63
2023-01-05T00:25:54.616Z,0.63
2023-01-05T00:28:21.294Z,0.63
2023-01-05T00:30:48.071Z,0.65
2023-01-05T00:33:15.847Z,0.66
2023-01-05T00:35:42.720Z,0.67
2023-01-05T00:38:09.494Z,0.67
2023-01-05T00:40:38.500Z,0.66
2023-01-05T00:43:05.195Z,0.66
2023-01-05T00:45:32.229Z,0.65
2023-01-05T00:47:58.988Z,0.63
2023-01-05T00:50:25.686Z,0.63
2023-01-05T00:52:52.501Z,0.62
2023-01-05T00:55:19.129Z,0.62
2023-01-05T00:57:46.440Z,0.63
2023-01-05T01:00:18.439Z,0.65
2023-01-05T01:02:45.438Z,0.68
2023-01-05T01:05:12.261Z,0.70
2023-01-05T01:07:39.025Z,0.72
2023-01-05T01:10:06.581Z,0.75
2023-01-05T01:12:33.324Z,0.76
2023-01-05T01:15:00.142Z,0.77
2023-01-05T01:17:26.772Z,0.77
2023-01-05T01:19:53.504Z,0.80
2023-01-05T01:22:20.222Z,0.81
2023-01-05T01:24:47.004Z,0.82
2023-01-05T01:27:13.820Z,0.83
2023-01-05T01:29:40.444Z,0.84
2023-01-05T01:32:07.429Z,0.84
2023-01-05T01:34:34.272Z,0.85
2023-01-05T01:39:35.274Z,0.85
2023-01-05T01:42:06.484Z,0.83
2023-01-05T01:44:59.076Z,0.84
2023-01-05T01:47:44.335Z,0.85
2023-01-05T01:50:25.141Z,0.85
2023-01-05T01:52:52.960Z,0.85
2023-01-05T01:55:19.764Z,0.87
2023-01-05T01:57:46.549Z,0.89
2023-01-05T02:00:14.924Z,0.91
2023-01-05T02:02:46.602Z,0.91
2023-01-05T02:05:14.376Z,0.91
2023-01-05T02:07:44.744Z,0.93
2023-01-05T02:10:12.283Z,0.95
2023-01-05T02:12:57.873Z,0.96
2023-01-05T02:15:30.971Z,0.97
2023-01-05T02:18:29.325Z,0.98
2023-01-05T02:21:17.119Z,0.98
2023-01-05T02:24:06.592Z,0.98
2023-01-05T02:26:52.543Z,0.99
2023-01-05T02:29:38.376Z,1.00
2023-01-05T02:32:05.107Z,1.01
2023-01-05T02:34:47.000Z,1.02
2023-01-05T02:37:18.085Z,1.05
2023-01-05T02:39:58.127Z,1.06
2023-01-05T02:42:26.127Z,1.08
2023-01-05T02:44:53.179Z,1.10
2023-01-05T02:47:27.590Z,1.12
2023-01-05T02:50:19.847Z,1.12
2023-01-05T02:53:08.940Z,1.14
2023-01-05T02:55:39.057Z,1.15
2023-01-05T02:58:09.607Z,1.15
2023-01-05T03:00:43.175Z,1.16
2023-01-05T03:03:25.650Z,1.16
2023-01-05T03:05:55.709Z,1.18
2023-01-05T03:08:30.619Z,1.19
2023-01-05T03:11:20.312Z,1.21
2023-01-05T03:13:59.408Z,1.23
2023-01-05T03:16:29.342Z,1.24
2023-01-05T03:19:15.634Z,1.24
2023-01-05T03:22:01.624Z,1.24
2023-01-05T03:24:48.546Z,1.24
2023-01-05T03:27:34.016Z,1.23
2023-01-05T03:30:19.709Z,1.23
2023-01-05T03:33:08.588Z,1.23
2023-01-05T03:35:38.514Z,1.24
2023-01-05T03:38:18.098Z,1.24
2023-01-05T03:40:45.871Z,1.22
2023-01-05T03:43:12.858Z,1.22
2023-01-05T03:45:50.817Z,1.19
2023-01-05T03:48:21.106Z,1.16
2023-01-05T03:50:48.025Z,1.16
2023-01-05T03:53:15.176Z,1.15
2023-01-05T03:55:43.310Z,1.14
2023-01-05T03:58:10.131Z,1.14
2023-01-05T04:00:40.394Z,1.13
2023-01-05T04:03:09.207Z,1.15
2023-01-05T04:05:36.736Z,1.16
2023-01-05T04:08:03.841Z,1.16
2023-01-05T04:10:32.539Z,1.17
2023-01-05T04:12:59.577Z,1.17
2023-01-05T04:15:26.439Z,1.17
2023-01-05T04:17:53.690Z,1.18
2023-01-05T04:20:20.904Z,1.18
2023-01-05T04:22:47.881Z,1.17
2023-01-05T04:25:17.397Z,1.16
2023-01-05T04:27:44.147Z,1.15
2023-01-05T04:30:11.439Z,1.12
2023-01-05T04:32:38.331Z,1.11
2023-01-05T04:35:10.952Z,1.11
2023-01-05T04:37:39.730Z,1.11
2023-01-05T04:40:08.015Z,1.12
2023-01-05T04:42:41.325Z,1.12
2023-01-05T04:45:08.884Z,1.14
2023-01-05T04:47:36.183Z,1.15
2023-01-05T04:50:04.776Z,1.17
2023-01-05T04:52:31.851Z,1.19
2023-01-05T04:54:58.952Z,1.19
2023-01-05T04:57:26.618Z,1.20
2023-01-05T04:59:53.329Z,1.22
2023-01-05T05:02:20.179Z,1.24
2023-01-05T05:04:48.808Z,1.24
2023-01-05T05:07:16.536Z,1.28
2023-01-05T05:09:43.225Z,1.29
2023-01-05T05:12:10.663Z,1.31
2023-01-05T05:14:38.166Z,1.32
2023-01-05T05:17:05.386Z,1.35
2023-01-05T05:19:32.354Z,1.37
2023-01-05T05:21:59.323Z,1.40
2023-01-05T05:24:26.384Z,1.41
2023-01-05T05:26:53.192Z,1.45
2023-01-05T05:29:19.890Z,1.47
2023-01-05T05:31:46.652Z,1.49
2023-01-05T05:34:13.392Z,1.51
2023-01-05T05:36:40.110Z,1.52
2023-01-05T05:39:08.810Z,1.55
2023-01-05T05:41:35.704Z,1.57
2023-01-05T05:44:02.733Z,1.58
2023-01-05T05:46:29.889Z,1.59
2023-01-05T05:48:57.103Z,1.62
2023-01-05T05:51:24.107Z,1.66
2023-01-05T05:53:51.231Z,1.68
2023-01-05T05:57:43.886Z,1.72
2023-01-05T06:00:11.381Z,1.71
2023-01-05T06:02:41.094Z,1.72
2023-01-05T06:05:08.616Z,1.73
2023-01-05T06:07:35.335Z,1.74
2023-01-05T06:10:02.298Z,1.77
2023-01-05T06:12:29.231Z,1.79
2023-01-05T06:14:56.076Z,1.82
2023-01-05T06:17:22.782Z,1.84
2023-01-05T06:19:49.499Z,1.86
2023-01-05T06:22:16.232Z,1.88
2023-01-05T06:24:42.951Z,1.90
2023-01-05T06:27:11.002Z,1.92
2023-01-05T06:29:37.772Z,1.96
2023-01-05T06:32:04.525Z,1.98
2023-01-05T06:34:31.246Z,2.01
2023-01-05T06:37:02.062Z,2.03
2023-01-05T06:39:29.244Z,2.06
2023-01-05T06:41:56.027Z,2.10
2023-01-05T06:44:22.730Z,2.12
2023-01-05T06:46:49.425Z,2.16
2023-01-05T06:49:16.195Z,2.20
2023-01-05T06:51:42.837Z,2.24
2023-01-05T06:54:09.653Z,2.28
2023-01-05T06:56:36.392Z,2.31
2023-01-05T06:59:03.107Z,2.35
2023-01-05T07:01:29.932Z,2.38
2023-01-05T07:03:56.871Z,2.41
2023-01-05T07:06:23.486Z,2.45
2023-01-05T07:08:50.240Z,2.46
2023-01-05T07:11:16.929Z,2.48
2023-01-05T07:13:47.702Z,2.51
2023-01-05T07:16:14.500Z,2.53
2023-01-05T07:18:41.264Z,2.55
2023-01-05T07:21:07.942Z,2.58
2023-01-05T07:23:37.856Z,2.59
2023-01-05T07:26:08.395Z,2.60
2023-01-05T07:28:35.745Z,2.62
2023-01-05T07:31:02.520Z,2.65
2023-01-05T07:33:29.151Z,2.66
2023-01-05T07:35:55.894Z,2.67
2023-01-05T07:38:22.617Z,2.69
2023-01-05T07:40:49.333Z,2.71
2023-01-05T07:43:16.494Z,2.74
2023-01-05T07:45:43.826Z,2.77
2023-01-05T07:48:10.570Z,2.80
2023-01-05T07:50:37.291Z,2.85
2023-01-05T07:53:03.959Z,2.90
2023-01-05T07:55:30.673Z,2.95
2023-01-05T07:57:57.367Z,2.99
2023-01-05T08:00:24.106Z,3.03
2023-01-05T08:02:50.876Z,3.07
2023-01-05T08:05:17.692Z,3.10
2023-01-05T08:07:44.339Z,3.13
2023-01-05T08:10:29.367Z,3.15
2023-01-05T08:13:19.798Z,3.17
2023-01-05T08:15:51.034Z,3.19
2023-01-05T08:18:18.569Z,3.23
2023-01-05T08:20:58.603Z,3.25
2023-01-05T08:23:27.375Z,3.31
2023-01-05T08:25:54.689Z,3.35
2023-01-05T08:28:21.416Z,3.41
2023-01-05T08:30:48.173Z,3.46
2023-01-05T08:33:14.877Z,3.52
2023-01-05T08:35:42.353Z,3.56
2023-01-05T08:38:09.117Z,3.61
2023-01-05T08:40:38.918Z,3.66
2023-01-05T08:43:06.154Z,3.70
2023-01-05T08:45:33.271Z,3.71
2023-01-05T08:48:01.589Z,3.75
2023-01-05T08:50:28.377Z,3.79
2023-01-05T08:52:55.100Z,3.81
2023-01-05T08:55:21.871Z,3.84
2023-01-05T08:57:48.572Z,3.86
2023-01-05T09:00:17.366Z,3.88
2023-01-05T09:02:44.632Z,3.91
2023-01-05T09:05:11.535Z,3.94
2023-01-05T09:07:38.299Z,3.97
2023-01-05T09:10:06.342Z,3.99
2023-01-05T09:12:35.613Z,4.03
2023-01-05T09:15:02.565Z,4.06
2023-01-05T09:17:29.344Z,4.09
2023-01-05T09:19:56.096Z,4.13
2023-01-05T09:22:22.869Z,4.15
2023-01-05T09:24:49.565Z,4.19
2023-01-05T09:27:16.361Z,4.21
2023-01-05T09:29:43.039Z,4.26
2023-01-05T09:32:11.524Z,4.30
2023-01-05T09:34:38.348Z,4.32
2023-01-05T09:37:05.017Z,4.34
2023-01-05T09:39:31.719Z,4.37
2023-01-05T09:42:00.399Z,4.40
2023-01-05T09:44:41.568Z,4.42
2023-01-05T09:47:18.703Z,4.44
2023-01-05T09:49:46.935Z,4.47
2023-01-05T09:52:13.677Z,4.49
2023-01-05T09:54:40.683Z,4.52
2023-01-05T09:57:13.671Z,4.54
2023-01-05T09:59:45.454Z,4.55
2023-01-05T10:02:25.239Z,4.56
2023-01-05T10:04:52.060Z,4.57
2023-01-05T10:07:21.835Z,4.57
2023-01-05T10:09:48.534Z,4.58
2023-01-05T10:12:38.614Z,4.59
2023-01-05T10:15:14.086Z,4.60
2023-01-05T10:17:43.513Z,4.61
2023-01-05T10:20:23.551Z,4.63
2023-01-05T10:23:30.689Z,4.66
2023-01-05T10:26:51.090Z,4.68
2023-01-05T10:29:22.482Z,4.69
2023-01-05T10:31:56.281Z,4.69
2023-01-05T10:34:28.992Z,4.73
2023-01-05T10:37:34.382Z,4.75
2023-01-05T10:40:03.679Z,4.77
2023-01-05T10:42:52.840Z,4.79
2023-01-05T10:45:19.660Z,4.80
2023-01-05T10:47:46.530Z,4.80
2023-01-05T10:50:40.021Z,4.83
2023-01-05T10:53:12.053Z,4.83
2023-01-05T10:55:45.081Z,4.85
2023-01-05T10:58:42.106Z,4.87
2023-01-05T11:01:25.326Z,4.89
2023-01-05T11:04:25.641Z,4.92
2023-01-05T11:06:43.163Z,4.95
2023-01-05T11:09:20.310Z,4.98
2023-01-05T11:11:58.017Z,5.01
2023-01-05T11:14:24.742Z,5.05
2023-01-05T11:16:53.510Z,5.07
2023-01-05T11:19:28.224Z,5.09
2023-01-05T11:22:01.401Z,5.13
2023-01-05T11:24:34.612Z,5.15
2023-01-05T11:27:26.641Z,5.18
2023-01-05T11:30:24.710Z,5.22
2023-01-05T11:32:51.455Z,5.25
2023-01-05T11:35:37.459Z,5.28
2023-01-05T11:38:04.428Z,5.30
2023-01-05T11:40:32.463Z,5.33
2023-01-05T11:42:59.417Z,5.35
2023-01-05T11:45:28.713Z,5.37
2023-01-05T11:47:57.151Z,5.39
2023-01-05T11:50:27.804Z,5.41
2023-01-05T11:52:56.025Z,5.43
2023-01-05T11:55:35.521Z,5.45
2023-01-05T11:58:17.861Z,5.46
2023-01-05T12:00:50.980Z,5.48
2023-01-05T12:03:30.730Z,5.49
2023-01-05T12:05:58.439Z,5.51
2023-01-05T12:08:31.166Z,5.52
2023-01-05T12:11:15.556Z,5.53
2023-01-05T12:14:08.849Z,5.55
2023-01-05T12:16:45.814Z,5.58
2023-01-05T12:19:44.805Z,5.59
2023-01-05T12:22:39.088Z,5.61
2023-01-05T12:25:11.565Z,5.62
2023-01-05T12:29:49.844Z,5.64
2023-01-05T12:33:44.336Z,5.65
2023-01-05T12:35:48.313Z,5.66
2023-01-05T12:38:23.655Z,5.68
2023-01-05T12:41:04.003Z,5.67
2023-01-05T12:43:45.851Z,5.69
2023-01-05T12:46:40.459Z,5.70
2023-01-05T12:49:13.049Z,5.71
2023-01-05T12:51:46.597Z,5.71
2023-01-05T12:54:30.768Z,5.71
2023-01-05T12:57:04.007Z,5.72
2023-01-05T12:59:49.903Z,5.72
2023-01-05T13:02:31.602Z,5.73
2023-01-05T13:05:41.693Z,5.72
2023-01-05T13:08:37.262Z,5.71
2023-01-05T13:11:12.513Z,5.71
2023-01-05T13:13:48.523Z,5.71
2023-01-05T13:16:29.442Z,5.71
2023-01-05T13:19:14.416Z,5.72
2023-01-05T13:21:42.969Z,5.72
2023-01-05T13:24:18.020Z,5.73
2023-01-05T13:26:44.774Z,5.73
2023-01-05T13:29:23.649Z,5.73
2023-01-05T13:31:58.297Z,5.74
2023-01-05T13:34:28.356Z,5.74
2023-01-05T13:37:13.736Z,5.73
2023-01-05T13:40:08.592Z,5.74
2023-01-05T13:42:38.256Z,5.74
2023-01-05T13:45:11.166Z,5.74
2023-01-05T13:48:07.416Z,5.73
2023-01-05T13:50:48.507Z,5.74
2023-01-05T13:53:20.075Z,5.75
2023-01-05T13:56:00.263Z,5.74
2023-01-05T13:59:12.138Z,5.75
2023-01-05T14:01:46.273Z,5.77
2023-01-05T14:04:20.243Z,5.76
2023-01-05T14:06:48.531Z,5.78
2023-01-05T14:28:34.036Z,6.04
2023-01-05T14:31:16.828Z,6.12
2023-01-05T14:33:53.189Z,6.10
2023-01-05T14:36:35.233Z,6.08
2023-01-05T14:39:04.079Z,6.05
2023-01-05T14:41:31.000Z,6.02
2023-01-05T14:44:02.860Z,6.00
2023-01-05T14:47:02.887Z,5.97
2023-01-05T14:49:53.507Z,5.95
2023-01-05T14:52:52.243Z,5.93
2023-01-05T14:55:38.706Z,5.91
2023-01-05T14:58:13.163Z,5.90
2023-01-05T15:00:45.828Z,5.89
2023-01-05T15:03:12.687Z,5.88
2023-01-05T15:05:42.157Z,5.88
2023-01-05T15:08:34.932Z,5.88
2023-01-05T15:11:22.857Z,5.88
2023-01-05T15:14:23.287Z,5.89
2023-01-05T15:17:00.506Z,5.89
2023-01-05T15:19:39.089Z,5.89
2023-01-05T15:22:40.477Z,5.89
2023-01-05T15:25:10.161Z,5.90
2023-01-05T15:27:45.897Z,5.90
2023-01-05T15:31:09.913Z,5.90
2023-01-05T15:33:44.466Z,5.90
2023-01-05T15:36:38.756Z,5.90
2023-01-05T15:39:25.616Z,5.89
2023-01-05T15:41:53.439Z,5.88
2023-01-05T15:44:20.123Z,5.87
2023-01-05T15:46:46.878Z,5.83
2023-01-05T15:49:20.721Z,5.87
2023-01-05T15:51:54.633Z,5.86
2023-01-05T15:54:29.529Z,5.85
2023-01-05T15:56:56.871Z,5.83
2023-01-05T15:59:35.902Z,5.83
2023-01-05T16:02:02.708Z,5.82
2023-01-05T16:04:29.357Z,5.83
2023-01-05T16:07:00.987Z,5.84
2023-01-05T16:09:38.438Z,5.83
2023-01-05T16:12:05.198Z,5.83
2023-01-05T16:14:43.791Z,5.84
2023-01-05T16:17:15.177Z,5.83
2023-01-05T16:19:45.015Z,5.84
2023-01-05T16:22:30.535Z,5.85
2023-01-05T16:25:03.211Z,5.85
2023-01-05T16:27:29.991Z,5.86
2023-01-05T16:29:56.814Z,5.87
2023-01-05T16:32:27.079Z,5.88
2023-01-05T16:35:35.899Z,5.87
2023-01-05T16:38:09.702Z,5.86
2023-01-05T16:40:57.545Z,5.84
2023-01-05T16:43:39.723Z,5.83
2023-01-05T16:46:29.098Z,5.82
2023-01-05T16:49:46.363Z,5.81
2023-01-05T16:52:23.858Z,5.83
2023-01-05T16:55:27.703Z,5.83
2023-01-05T16:57:55.013Z,5.84
2023-01-05T17:00:31.533Z,5.83
2023-01-05T17:02:59.149Z,5.84
2023-01-05T17:05:33.689Z,5.84
2023-01-05T17:08:06.334Z,5.85
2023-01-05T17:10:33.092Z,5.86
2023-01-05T17:13:10.681Z,5.88
2023-01-05T17:15:37.461Z,5.89
2023-01-05T17:18:14.484Z,5.91
2023-01-05T17:20:41.690Z,5.91
2023-01-05T17:23:34.487Z,5.92
2023-01-05T17:26:07.503Z,5.93
2023-01-05T17:28:34.320Z,5.90
2023-01-05T17:31:00.982Z,5.94
2023-01-05T17:33:27.692Z,5.94
2023-01-05T17:35:54.423Z,5.90
2023-01-05T17:38:21.159Z,5.93
2023-01-05T17:40:47.968Z,5.92
2023-01-05T17:43:14.597Z,5.91
2023-01-05T17:45:42.851Z,5.90
2023-01-05T17:50:41.711Z,5.89
2023-01-05T17:53:08.438Z,5.87
2023-01-05T17:55:35.498Z,5.84
2023-01-05T17:58:02.310Z,5.87
2023-01-05T18:00:30.229Z,5.83
2023-01-05T18:02:57.003Z,5.86
2023-01-05T18:05:23.687Z,5.87
2023-01-05T18:07:50.442Z,5.86
2023-01-05T18:10:21.694Z,5.86
2023-01-05T18:12:48.587Z,5.85
2023-01-05T18:15:15.231Z,5.85
2023-01-05T18:17:42.635Z,5.85
2023-01-05T18:20:12.705Z,5.84
2023-01-05T18:22:39.572Z,5.84
2023-01-05T18:27:38.091Z,5.85
2023-01-05T18:30:05.600Z,5.85
2023-01-05T18:32:32.402Z,5.85
2023-01-05T18:34:59.079Z,5.86
2023-01-05T18:39:57.802Z,5.86
2023-01-05T18:42:24.452Z,5.87
2023-01-05T18:44:51.444Z,5.88
2023-01-05T18:47:18.566Z,5.84
2023-01-05T18:49:45.316Z,5.84
2023-01-05T18:52:12.157Z,5.88
2023-01-05T18:54:38.765Z,5.89
2023-01-05T18:57:05.553Z,5.89
2023-01-05T18:59:32.267Z,5.88
2023-01-05T19:01:59.455Z,5.89
2023-01-05T19:04:26.370Z,5.90
2023-01-05T19:06:53.036Z,5.90
2023-01-05T19:09:19.784Z,5.92
2023-01-05T19:11:47.165Z,5.93
2023-01-05T19:14:14.425Z,5.95
2023-01-05T19:16:41.401Z,5.95
2023-01-05T19:19:11.507Z,5.97
2023-01-05T19:21:40.054Z,5.98
2023-01-05T19:24:10.029Z,5.99
2023-01-05T19:26:36.801Z,6.01
2023-01-05T19:29:03.765Z,6.02
2023-01-05T19:31:30.579Z,6.03
2023-01-05T19:33:59.129Z,6.05
2023-01-05T19:36:32.250Z,6.02
2023-01-05T19:39:00.746Z,6.05
2023-01-05T19:41:27.567Z,6.05
2023-01-05T19:43:54.501Z,6.07
2023-01-05T19:46:22.314Z,6.08
2023-01-05T19:48:49.207Z,6.08
2023-01-05T19:51:16.848Z,6.08
2023-01-05T19:53:43.740Z,6.09
2023-01-05T19:56:12.884Z,6.08
2023-01-05T19:58:40.078Z,6.09
2023-01-05T20:01:15.062Z,6.09
2023-01-05T20:03:43.698Z,6.09
2023-01-05T20:06:16.569Z,6.09
2023-01-05T20:08:44.524Z,6.09
2023-01-05T20:11:13.027Z,6.09
2023-01-05T20:13:40.293Z,6.10
2023-01-05T20:16:08.732Z,6.10
2023-01-05T20:18:35.824Z,6.12
2023-01-05T20:21:03.482Z,6.09
2023-01-05T20:23:40.208Z,6.12
2023-01-05T20:26:09.434Z,6.12
2023-01-05T20:28:36.202Z,6.13
2023-01-05T20:31:03.712Z,6.13
2023-01-05T20:33:30.765Z,6.13
2023-01-05T20:35:57.663Z,6.13
2023-01-05T20:38:24.281Z,6.13
2023-01-05T20:40:51.163Z,6.11
2023-01-05T20:43:17.820Z,6.13
2023-01-05T20:45:44.712Z,6.12
2023-01-05T20:48:11.438Z,6.11
2023-01-05T20:50:38.276Z,6.11
2023-01-05T20:53:05.115Z,6.12
2023-01-05T20:55:31.719Z,6.10
2023-01-05T20:57:58.382Z,6.11
2023-01-05T21:00:25.911Z,6.10
2023-01-05T21:02:52.734Z,6.10
2023-01-05T21:05:19.426Z,6.11
2023-01-05T21:07:46.751Z,6.10
2023-01-05T21:10:13.692Z,6.10
2023-01-05T21:12:59.049Z,6.09
2023-01-05T21:15:53.318Z,6.09
2023-01-05T21:18:20.198Z,6.08
2023-01-05T21:20:47.008Z,6.08
2023-01-05T21:23:13.866Z,6.08
2023-01-05T21:26:05.716Z,6.08
2023-01-05T21:28:30.758Z,6.08
2023-01-05T21:31:01.839Z,6.08
2023-01-05T21:33:28.632Z,6.07
2023-01-05T21:35:56.237Z,6.07
2023-01-05T21:38:24.525Z,6.07
2023-01-05T21:40:51.409Z,6.07
2023-01-05T21:43:18.070Z,6.08
2023-01-05T21:45:44.778Z,6.09
2023-01-05T21:48:11.488Z,6.09
2023-01-05T21:50:57.781Z,6.08
2023-01-05T21:53:43.102Z,6.07
2023-01-05T21:56:26.283Z,6.06
2023-01-05T21:58:59.570Z,6.05
2023-01-05T22:01:27.812Z,6.03
2023-01-05T22:03:54.723Z,6.02
2023-01-05T22:06:21.518Z,5.97
2023-01-05T22:08:48.137Z,6.00
2023-01-05T22:11:14.789Z,6.00
2023-01-05T22:13:41.694Z,5.99
2023-01-05T22:16:08.711Z,5.98
2023-01-05T22:18:35.645Z,5.94
2023-01-05T22:21:03.649Z,5.96
2023-01-05T22:23:30.830Z,5.94
2023-01-05T22:26:05.985Z,5.93
2023-01-05T22:28:34.199Z,5.93
2023-01-05T22:31:08.753Z,5.92
2023-01-05T22:33:36.696Z,5.92
2023-01-05T22:36:03.907Z,5.92
2023-01-05T22:38:30.620Z,5.92
2023-01-05T22:40:58.464Z,5.91
2023-01-05T22:43:25.258Z,5.92
2023-01-05T22:45:51.914Z,5.92
2023-01-05T22:48:18.885Z,5.92
2023-01-05T22:50:46.221Z,5.91
2023-01-05T22:53:13.560Z,5.90
2023-01-05T22:55:43.899Z,5.89
2023-01-05T22:58:11.175Z,5.89
2023-01-05T23:00:38.078Z,5.89
2023-01-05T23:03:04.947Z,5.90
2023-01-05T23:05:31.647Z,5.90
2023-01-05T23:07:58.452Z,5.90
2023-01-05T23:10:27.690Z,5.90
2023-01-05T23:12:54.510Z,5.90
2023-01-05T23:15:21.259Z,5.90
2023-01-05T23:17:48.025Z,5.89
2023-01-05T23:20:14.848Z,5.88
2023-01-05T23:22:41.493Z,5.87
2023-01-05T23:25:08.576Z,5.86
2023-01-05T23:27:35.296Z,5.86
2023-01-05T23:30:02.116Z,5.84
2023-01-05T23:32:28.852Z,5.84
2023-01-05T23:34:55.607Z,5.83
2023-01-05T23:37:22.301Z,5.82
2023-01-05T23:39:49.029Z,5.81
2023-01-05T23:42:34.549Z,5.81
2023-01-05T23:45:01.242Z,5.79
2023-01-05T23:47:27.949Z,5.80
2023-01-05T23:49:54.586Z,5.80
2023-01-05T23:52:21.287Z,5.79
2023-01-05T23:54:48.041Z,5.77
2023-01-05T23:57:18.566Z,5.59
2023-01-05T23:59:45.475Z,5.73
